createdAt,value
2019-04-20T00:00:09.153Z,13.77
2019-04-20T00:01:07.360Z,13.85
2019-04-20T00:02:12.490Z,13.78
2019-04-20T00:03:05.978Z,13.82
2019-04-20T00:04:05.338Z,13.91
2019-04-20T00:05:05.340Z,13.92
2019-04-20T00:06:07.041Z,13.84
2019-04-20T00:07:05.974Z,13.81
2019-04-20T00:08:09.114Z,13.82
2019-04-20T00:09:12.239Z,13.78
2019-04-20T00:10:11.794Z,13.77
2019-04-20T00:11:17.700Z,13.79
2019-04-20T00:12:12.713Z,13.75
2019-04-20T00:13:19.639Z,13.67
2019-04-20T00:14:13.510Z,13.63
2019-04-20T00:15:04.950Z,13.60
2019-04-20T00:16:06.104Z,13.59
2019-04-20T00:17:07.205Z,13.49
2019-04-20T00:18:08.260Z,13.44
2019-04-20T00:19:05.847Z,13.44
2019-04-20T00:20:13.445Z,13.38
2019-04-20T00:21:10.995Z,13.29
2019-04-20T00:22:08.685Z,13.29
2019-04-20T00:23:07.868Z,13.29
2019-04-20T00:24:11.397Z,13.19
2019-04-20T00:25:11.893Z,13.22
2019-04-20T00:26:14.872Z,13.33
2019-04-20T00:27:32.843Z,13.23
2019-04-20T00:28:24.152Z,13.28
2019-04-20T00:29:25.490Z,13.29
2019-04-20T00:30:32.636Z,13.29
2019-04-20T00:31:23.664Z,13.26
2019-04-20T00:32:17.621Z,13.23
2019-04-20T00:33:21.660Z,13.39
2019-04-20T00:34:15.008Z,13.39
2019-04-20T00:35:06.310Z,13.25
2019-04-20T00:36:05.351Z,13.23
2019-04-20T00:37:06.998Z,13.23
2019-04-20T00:38:05.653Z,13.20
2019-04-20T00:39:10.877Z,13.14
2019-04-20T00:40:05.778Z,13.14
2019-04-20T00:41:07.489Z,13.14
2019-04-20T00:42:09.688Z,13.10
2019-04-20T00:43:06.563Z,13.07
2019-04-20T00:44:16.145Z,13.08
2019-04-20T00:45:12.499Z,12.93
2019-04-20T00:46:09.103Z,13.00
2019-04-20T00:47:15.945Z,13.04
2019-04-20T00:48:22.650Z,12.97
2019-04-20T00:49:22.836Z,13.00
2019-04-20T00:50:25.879Z,12.95
2019-04-20T00:51:23.905Z,12.93
2019-04-20T00:53:15.010Z,12.86
2019-04-20T00:54:05.738Z,12.78
2019-04-20T00:55:04.453Z,12.83
2019-04-20T00:56:05.472Z,12.86
2019-04-20T00:57:16.776Z,12.85
2019-04-20T00:58:17.297Z,12.85
2019-04-20T00:59:16.792Z,12.83
2019-04-20T01:00:21.834Z,12.85
2019-04-20T01:01:27.744Z,12.83
2019-04-20T01:02:22.165Z,12.82
2019-04-20T01:03:24.824Z,12.78
2019-04-20T01:04:27.238Z,12.78
2019-04-20T01:05:22.975Z,12.83
2019-04-20T01:06:22.250Z,12.64
2019-04-20T01:07:15.310Z,12.64
2019-04-20T01:08:09.537Z,12.57
2019-04-20T01:09:05.400Z,12.62
2019-04-20T01:10:06.979Z,12.64
2019-04-20T01:11:04.332Z,12.65
2019-04-20T01:12:09.981Z,12.67
2019-04-20T01:13:11.666Z,12.57
2019-04-20T01:14:09.389Z,12.57
2019-04-20T01:15:09.121Z,12.59
2019-04-20T01:16:19.487Z,12.57
2019-04-20T01:17:11.790Z,12.59
2019-04-20T01:18:05.130Z,12.59
2019-04-20T01:19:04.143Z,12.50
2019-04-20T01:20:04.105Z,12.41
2019-04-20T01:21:15.900Z,12.42
2019-04-20T01:22:15.807Z,12.38
2019-04-20T01:23:09.983Z,12.38
2019-04-20T01:24:08.219Z,12.32
2019-04-20T01:25:16.502Z,12.27
2019-04-20T01:26:17.509Z,12.28
2019-04-20T01:27:08.110Z,12.32
2019-04-20T01:28:24.822Z,12.35
2019-04-20T01:29:16.958Z,12.37
2019-04-20T01:30:16.085Z,12.34
2019-04-20T01:31:14.689Z,12.41
2019-04-20T01:32:15.084Z,12.39
2019-04-20T01:33:21.377Z,12.45
2019-04-20T01:34:22.985Z,12.54
2019-04-20T01:35:27.327Z,12.52
2019-04-20T01:36:25.564Z,12.56
2019-04-20T01:37:17.592Z,12.59
2019-04-20T01:38:23.647Z,12.56
2019-04-20T01:39:15.998Z,12.53
2019-04-20T01:40:07.828Z,12.56
2019-04-20T01:41:03.889Z,12.46
2019-04-20T01:42:04.584Z,12.56
2019-04-20T01:43:03.883Z,12.47
2019-04-20T01:44:05.079Z,12.42
2019-04-20T01:45:14.510Z,12.38
2019-04-20T01:46:12.208Z,12.42
2019-04-20T01:47:06.654Z,12.42
2019-04-20T01:48:05.233Z,12.46
2019-04-20T01:49:07.930Z,12.49
2019-04-20T01:50:13.198Z,12.59
2019-04-20T01:51:15.163Z,12.67
2019-04-20T01:52:12.848Z,12.65
2019-04-20T01:53:16.519Z,12.72
2019-04-20T01:54:23.522Z,12.67
2019-04-20T01:55:24.508Z,12.68
2019-04-20T01:56:24.502Z,12.68
2019-04-20T01:57:13.640Z,12.64
2019-04-20T01:58:27.714Z,12.77
2019-04-20T01:59:19.552Z,12.72
2019-04-20T02:00:11.131Z,12.82
2019-04-20T02:01:13.568Z,12.87
2019-04-20T02:02:09.899Z,12.89
2019-04-20T02:03:08.194Z,13.00
2019-04-20T02:04:06.391Z,13.00
2019-04-20T02:05:13.844Z,13.12
2019-04-20T02:06:10.034Z,13.20
2019-04-20T02:07:08.516Z,13.25
2019-04-20T02:08:07.592Z,13.20
2019-04-20T02:09:11.943Z,13.10
2019-04-20T02:10:10.541Z,13.17
2019-04-20T02:11:07.754Z,13.07
2019-04-20T02:12:10.392Z,13.12
2019-04-20T02:13:06.576Z,13.04
2019-04-20T02:14:06.673Z,13.01
2019-04-20T02:15:07.567Z,12.97
2019-04-20T02:16:15.825Z,12.93
2019-04-20T02:17:16.785Z,12.93
2019-04-20T02:18:17.576Z,12.85
2019-04-20T02:19:22.075Z,12.85
2019-04-20T02:20:27.544Z,12.83
2019-04-20T02:21:25.857Z,12.79
2019-04-20T02:22:17.112Z,12.87
2019-04-20T02:23:17.628Z,12.85
2019-04-20T02:24:07.386Z,12.85
2019-04-20T02:25:05.901Z,12.83
2019-04-20T02:26:03.396Z,12.95
2019-04-20T02:27:06.093Z,12.90
2019-04-20T02:28:23.928Z,12.92
2019-04-20T02:29:33.607Z,12.92
2019-04-20T02:30:41.400Z,12.92
2019-04-20T02:33:42.200Z,12.77
2019-04-20T02:34:43.234Z,12.64
2019-04-20T02:35:36.625Z,12.79
2019-04-20T02:36:53.321Z,12.79
2019-04-20T02:37:49.358Z,12.77
2019-04-20T02:38:58.448Z,12.78
2019-04-20T02:42:46.632Z,12.67
2019-04-20T02:43:48.340Z,12.65
2019-04-20T02:44:41.926Z,12.72
2019-04-20T02:46:41.564Z,12.72
2019-04-20T02:47:41.516Z,12.75
2019-04-20T02:48:39.387Z,12.79
2019-04-20T02:49:50.906Z,12.74
2019-04-20T02:50:56.228Z,12.77
2019-04-20T02:51:41.969Z,12.79
2019-04-20T02:53:41.484Z,12.68
2019-04-20T02:54:40.804Z,12.71
2019-04-20T02:56:41.833Z,12.75
2019-04-20T02:57:42.838Z,12.79
2019-04-20T02:58:43.628Z,12.75
2019-04-20T03:00:31.012Z,12.71
2019-04-20T03:01:29.420Z,12.65
2019-04-20T03:02:23.572Z,12.65
2019-04-20T03:03:16.999Z,12.62
2019-04-20T03:04:17.640Z,12.67
2019-04-20T03:05:16.440Z,12.68
2019-04-20T03:06:18.531Z,12.67
2019-04-20T03:07:19.687Z,12.65
2019-04-20T03:08:22.127Z,12.62
2019-04-20T03:09:25.684Z,12.64
2019-04-20T03:10:28.260Z,12.56
2019-04-20T03:11:37.480Z,12.57
2019-04-20T03:12:30.355Z,12.57
2019-04-20T03:13:26.960Z,12.50
2019-04-20T03:14:22.824Z,12.59
2019-04-20T03:15:26.454Z,12.54
2019-04-20T03:17:29.756Z,12.45
2019-04-20T03:18:27.261Z,12.52
2019-04-20T03:19:22.352Z,12.57
2019-04-20T03:20:34.278Z,12.54
2019-04-20T03:21:24.590Z,12.50
2019-04-20T03:22:23.608Z,12.46
2019-04-20T03:23:35.339Z,12.41
2019-04-20T03:24:35.287Z,12.41
2019-04-20T03:25:22.678Z,12.31
2019-04-20T03:26:21.199Z,12.32
2019-04-20T03:27:25.046Z,12.35
2019-04-20T03:28:28.030Z,12.37
2019-04-20T03:29:15.997Z,12.28
2019-04-20T03:31:04.056Z,12.17
2019-04-20T03:31:41.636Z,12.21
2019-04-20T03:33:44.956Z,12.16
2019-04-20T03:35:29.887Z,12.24
2019-04-20T03:36:47.218Z,12.21
2019-04-20T03:37:34.597Z,12.16
2019-04-20T03:38:20.234Z,12.21
2019-04-20T03:39:22.130Z,12.28
2019-04-20T03:40:17.633Z,12.28
2019-04-20T03:41:16.548Z,12.29
2019-04-20T03:42:07.572Z,12.29
2019-04-20T03:43:03.742Z,12.37
2019-04-20T03:44:08.978Z,12.27
2019-04-20T03:45:09.360Z,12.27
2019-04-20T03:46:10.852Z,12.31
2019-04-20T03:47:08.927Z,12.29
2019-04-20T03:48:16.074Z,12.16
2019-04-20T03:49:22.706Z,12.14
2019-04-20T03:50:24.657Z,12.13
2019-04-20T03:51:32.003Z,12.13
2019-04-20T03:52:26.116Z,12.12
2019-04-20T03:53:22.680Z,12.16
2019-04-20T03:54:22.222Z,12.02
2019-04-20T03:55:21.172Z,12.07
2019-04-20T03:56:28.553Z,11.95
2019-04-20T03:57:29.570Z,12.05
2019-04-20T03:58:24.162Z,11.99
2019-04-20T03:59:16.206Z,11.99
2019-04-20T04:00:22.071Z,11.99
2019-04-20T04:01:31.626Z,11.90
2019-04-20T04:02:42.413Z,11.96
2019-04-20T04:03:31.782Z,11.96
2019-04-20T04:04:28.465Z,11.95
2019-04-20T04:05:17.681Z,11.96
2019-04-20T04:06:15.674Z,11.98
2019-04-20T04:07:19.584Z,12.04
2019-04-20T04:08:14.985Z,11.94
2019-04-20T04:09:17.804Z,12.01
2019-04-20T04:10:15.963Z,12.02
2019-04-20T04:11:21.015Z,11.99
2019-04-20T04:12:21.809Z,11.91
2019-04-20T04:13:03.242Z,11.90
2019-04-20T04:14:03.045Z,11.90
2019-04-20T04:15:10.562Z,11.95
2019-04-20T04:16:07.770Z,11.82
2019-04-20T04:17:04.608Z,11.83
2019-04-20T04:18:07.529Z,11.96
2019-04-20T04:19:18.973Z,12.02
2019-04-20T04:20:08.561Z,11.98
2019-04-20T04:21:08.417Z,11.99
2019-04-20T04:22:15.851Z,12.04
2019-04-20T04:23:19.258Z,11.94
2019-04-20T04:24:26.059Z,11.94
2019-04-20T04:25:18.345Z,11.99
2019-04-20T04:26:24.547Z,11.94
2019-04-20T04:27:22.438Z,11.94
2019-04-20T04:28:18.585Z,11.98
2019-04-20T04:29:30.075Z,11.79
2019-04-20T04:30:18.285Z,11.79
2019-04-20T04:31:20.415Z,11.90
2019-04-20T04:32:32.883Z,11.85
2019-04-20T04:34:30.687Z,11.85
2019-04-20T04:35:16.580Z,11.86
2019-04-20T04:36:18.264Z,11.94
2019-04-20T04:37:21.678Z,11.96
2019-04-20T04:38:28.966Z,12.04
2019-04-20T04:39:26.385Z,12.02
2019-04-20T04:40:46.240Z,12.12
2019-04-20T04:41:24.273Z,12.10
2019-04-20T04:42:28.171Z,12.14
2019-04-20T04:43:19.777Z,12.16
2019-04-20T04:44:22.597Z,12.34
2019-04-20T04:45:07.717Z,12.27
2019-04-20T04:46:03.924Z,12.34
2019-04-20T04:47:05.261Z,12.56
2019-04-20T04:48:06.736Z,12.52
2019-04-20T04:49:09.634Z,12.64
2019-04-20T04:50:12.596Z,12.78
2019-04-20T04:51:10.434Z,12.82
2019-04-20T04:52:07.896Z,12.86
2019-04-20T04:53:20.599Z,12.90
2019-04-20T04:54:16.404Z,13.10
2019-04-20T04:55:13.269Z,13.15
2019-04-20T04:56:08.774Z,13.12
2019-04-20T04:57:07.845Z,13.17
2019-04-20T04:58:02.327Z,13.19
2019-04-20T04:59:02.356Z,13.30
2019-04-20T05:00:01.809Z,13.36
2019-04-20T05:01:11.820Z,13.28
2019-04-20T05:02:03.431Z,13.48
2019-04-20T05:03:14.547Z,13.67
2019-04-20T05:04:29.978Z,13.66
2019-04-20T05:05:23.834Z,13.79
2019-04-20T05:06:18.738Z,13.73
2019-04-20T05:07:16.061Z,14.02
2019-04-20T05:08:13.117Z,14.06
2019-04-20T05:09:12.330Z,14.17
2019-04-20T05:10:03.532Z,14.20
2019-04-20T05:11:02.640Z,14.24
2019-04-20T05:12:12.586Z,14.32
2019-04-20T05:13:02.968Z,14.45
2019-04-20T05:14:06.644Z,14.35
2019-04-20T05:15:10.105Z,14.43
2019-04-20T05:16:16.762Z,14.39
2019-04-20T05:17:32.879Z,14.61
2019-04-20T05:18:28.607Z,14.62
2019-04-20T05:19:23.772Z,14.73
2019-04-20T05:21:24.506Z,15.11
2019-04-20T05:22:29.579Z,15.13
2019-04-20T05:23:19.335Z,15.28
2019-04-20T05:24:20.214Z,15.14
2019-04-20T05:26:25.831Z,15.19
2019-04-20T05:27:27.486Z,15.14
2019-04-20T05:28:16.816Z,15.13
2019-04-20T05:29:10.495Z,15.36
2019-04-20T05:30:04.007Z,15.32
2019-04-20T05:31:03.438Z,15.59
2019-04-20T05:32:07.851Z,15.69
2019-04-20T05:33:08.283Z,15.60
2019-04-20T05:34:26.070Z,15.69
2019-04-20T05:35:29.523Z,15.89
2019-04-20T05:36:23.535Z,15.82
2019-04-20T05:37:35.383Z,15.74
2019-04-20T05:38:34.015Z,15.69
2019-04-20T05:39:26.841Z,15.82
2019-04-20T05:40:24.478Z,15.78
2019-04-20T05:41:22.446Z,15.78
2019-04-20T05:42:24.578Z,15.82
2019-04-20T05:43:20.581Z,15.93
2019-04-20T05:44:16.923Z,16.17
2019-04-20T05:45:20.585Z,16.38
2019-04-20T05:46:27.839Z,16.33
2019-04-20T05:47:21.685Z,16.43
2019-04-20T05:48:16.400Z,16.66
2019-04-20T05:49:25.829Z,16.89
2019-04-20T05:50:23.187Z,16.91
2019-04-20T05:51:29.475Z,17.06
2019-04-20T05:52:37.625Z,17.16
2019-04-20T05:53:30.525Z,17.36
2019-04-20T05:54:25.618Z,17.49
2019-04-20T05:55:23.129Z,17.46
2019-04-20T05:56:26.434Z,17.59
2019-04-20T05:59:19.204Z,17.44
2019-04-20T06:00:27.724Z,17.38
2019-04-20T06:01:25.033Z,17.30
2019-04-20T06:02:30.156Z,17.26
2019-04-20T06:03:24.531Z,17.48
2019-04-20T06:04:39.937Z,17.87
2019-04-20T06:05:23.695Z,17.97
2019-04-20T06:06:22.088Z,17.79
2019-04-20T06:07:25.197Z,17.95
2019-04-20T06:08:33.053Z,18.20
2019-04-20T06:09:30.761Z,18.25
2019-04-20T06:10:26.421Z,18.17
2019-04-20T06:11:26.786Z,18.14
2019-04-20T06:12:20.069Z,18.00
2019-04-20T06:13:17.764Z,18.21
2019-04-20T06:14:12.067Z,18.66
2019-04-20T06:15:18.668Z,18.81
2019-04-20T06:16:18.641Z,18.84
2019-04-20T06:17:27.060Z,18.55
2019-04-20T06:18:17.802Z,18.17
2019-04-20T06:19:32.161Z,18.27
2019-04-20T06:20:27.176Z,18.47
2019-04-20T06:21:32.333Z,18.58
2019-04-20T06:22:31.081Z,18.44
2019-04-20T06:23:25.969Z,18.45
2019-04-20T06:24:24.925Z,18.45
2019-04-20T06:27:28.232Z,19.00
2019-04-20T06:28:19.662Z,19.02
2019-04-20T06:29:18.494Z,19.22
2019-04-20T06:30:20.209Z,19.21
2019-04-20T06:31:24.626Z,19.28
2019-04-20T06:32:28.590Z,19.43
2019-04-20T06:33:34.217Z,19.25
2019-04-20T06:34:30.541Z,19.33
2019-04-20T06:35:40.573Z,19.74
2019-04-20T06:37:24.435Z,19.62
2019-04-20T06:38:46.549Z,20.13
2019-04-20T06:39:27.739Z,19.98
2019-04-20T06:40:37.088Z,19.88
2019-04-20T06:41:44.953Z,20.13
2019-04-20T06:42:17.928Z,20.31
2019-04-20T06:43:25.404Z,20.16
2019-04-20T06:44:30.827Z,20.10
2019-04-20T06:45:28.197Z,19.78
2019-04-20T06:46:28.529Z,19.91
2019-04-20T06:47:24.464Z,20.11
2019-04-20T06:48:30.882Z,20.38
2019-04-20T06:49:31.526Z,20.33
2019-04-20T06:50:18.668Z,20.33
2019-04-20T06:51:29.884Z,20.05
2019-04-20T06:52:34.279Z,19.84
2019-04-20T06:53:32.293Z,19.73
2019-04-20T06:54:12.379Z,19.62
2019-04-20T06:55:19.711Z,19.83
2019-04-20T06:56:23.724Z,20.18
2019-04-20T06:57:27.143Z,20.62
2019-04-20T06:58:38.954Z,20.74
2019-04-20T06:59:27.613Z,20.82
2019-04-20T07:00:18.289Z,20.66
2019-04-20T07:01:24.930Z,20.57
2019-04-20T07:02:29.758Z,20.89
2019-04-20T07:03:40.695Z,21.10
2019-04-20T07:04:40.301Z,21.38
2019-04-20T07:05:22.494Z,21.01
2019-04-20T07:06:34.310Z,20.97
2019-04-20T07:07:27.935Z,21.37
2019-04-20T07:08:40.665Z,20.80
2019-04-20T07:09:32.242Z,20.57
2019-04-20T07:10:37.383Z,20.89
2019-04-20T07:11:23.868Z,21.40
2019-04-20T07:12:17.065Z,21.01
2019-04-20T07:13:15.531Z,20.91
2019-04-20T07:14:08.215Z,21.47
2019-04-20T07:15:18.782Z,22.09
2019-04-20T07:16:21.434Z,22.03
2019-04-20T07:17:34.940Z,22.15
2019-04-20T07:18:31.281Z,21.98
2019-04-20T07:19:22.891Z,22.35
2019-04-20T07:20:19.573Z,22.60
2019-04-20T07:21:37.557Z,22.70
2019-04-20T07:24:25.202Z,21.74
2019-04-20T07:25:29.316Z,21.91
2019-04-20T07:26:22.327Z,22.09
2019-04-20T07:27:27.741Z,22.17
2019-04-20T07:28:25.832Z,22.35
2019-04-20T07:29:26.952Z,22.27
2019-04-20T07:30:24.100Z,22.22
2019-04-20T07:31:18.173Z,22.07
2019-04-20T07:32:16.312Z,21.14
2019-04-20T07:33:26.747Z,21.56
2019-04-20T07:34:22.932Z,20.92
2019-04-20T07:35:21.669Z,21.32
2019-04-20T07:36:24.440Z,21.68
2019-04-20T07:38:34.547Z,21.94
2019-04-20T07:39:27.929Z,22.09
2019-04-20T07:40:20.648Z,21.72
2019-04-20T07:41:29.340Z,22.25
2019-04-20T07:42:29.115Z,22.61
2019-04-20T07:43:21.499Z,22.85
2019-04-20T07:44:27.916Z,22.64
2019-04-20T07:45:26.079Z,22.31
2019-04-20T07:46:34.805Z,22.68
2019-04-20T07:47:32.418Z,22.17
2019-04-20T07:48:21.902Z,22.10
2019-04-20T07:49:27.740Z,22.10
2019-04-20T07:50:17.139Z,21.98
2019-04-20T07:51:12.543Z,22.42
2019-04-20T07:52:04.020Z,22.68
2019-04-20T07:53:18.774Z,22.40
2019-04-20T07:54:29.157Z,21.56
2019-04-20T07:56:24.412Z,20.98
2019-04-20T07:57:21.529Z,21.12
2019-04-20T07:58:13.376Z,21.07
2019-04-20T07:59:15.508Z,21.61
2019-04-20T08:00:27.867Z,22.03
2019-04-20T08:01:31.724Z,21.58
2019-04-20T08:02:32.985Z,21.12
2019-04-20T08:03:18.446Z,20.73
2019-04-20T08:04:21.106Z,21.13
2019-04-20T08:05:17.223Z,21.86
2019-04-20T08:06:13.178Z,22.05
2019-04-20T08:07:04.226Z,21.94
2019-04-20T08:08:22.943Z,22.17
2019-04-20T08:09:17.146Z,21.69
2019-04-20T08:10:06.407Z,21.62
2019-04-20T08:11:20.840Z,21.64
2019-04-20T08:12:25.887Z,21.58
2019-04-20T08:13:25.750Z,21.50
2019-04-20T08:14:24.109Z,21.27
2019-04-20T08:15:34.138Z,21.16
2019-04-20T08:16:29.251Z,21.17
2019-04-20T08:17:46.453Z,21.32
2019-04-20T08:18:26.966Z,21.49
2019-04-20T08:19:17.630Z,21.59
2019-04-20T08:20:21.346Z,21.40
2019-04-20T08:21:22.857Z,21.27
2019-04-20T08:22:21.897Z,21.80
2019-04-20T08:23:23.790Z,22.30
2019-04-20T08:24:17.691Z,22.73
2019-04-20T08:25:13.740Z,22.95
2019-04-20T08:26:09.026Z,23.28
2019-04-20T08:27:06.477Z,23.19
2019-04-20T08:28:01.517Z,23.31
2019-04-20T08:29:10.352Z,23.68
2019-04-20T08:30:21.547Z,23.43
2019-04-20T08:31:14.089Z,23.16
2019-04-20T08:32:17.911Z,23.28
2019-04-20T08:33:19.478Z,23.02
2019-04-20T08:34:27.927Z,22.80
2019-04-20T08:35:28.560Z,23.28
2019-04-20T08:36:23.366Z,22.83
2019-04-20T08:37:20.715Z,23.50
2019-04-20T08:38:51.553Z,22.97
2019-04-20T08:39:37.932Z,22.55
2019-04-20T08:40:22.040Z,22.43
2019-04-20T08:41:18.188Z,22.28
2019-04-20T08:42:21.998Z,22.54
2019-04-20T08:43:32.691Z,22.85
2019-04-20T08:44:42.712Z,23.20
2019-04-20T08:45:28.783Z,23.22
2019-04-20T08:46:34.513Z,23.19
2019-04-20T08:47:27.806Z,22.43
2019-04-20T08:48:23.221Z,22.92
2019-04-20T08:51:19.509Z,24.46
2019-04-20T08:52:48.289Z,24.13
2019-04-20T08:54:17.025Z,24.21
2019-04-20T08:55:19.116Z,24.46
2019-04-20T08:56:14.330Z,24.61
2019-04-20T08:57:06.861Z,24.28
2019-04-20T08:57:59.925Z,23.87
2019-04-20T08:58:59.636Z,23.69
2019-04-20T09:00:01.433Z,24.08
2019-04-20T09:01:07.346Z,24.24
2019-04-20T09:02:07.189Z,24.21
2019-04-20T09:03:09.156Z,24.65
2019-04-20T09:04:09.758Z,23.97
2019-04-20T09:05:04.885Z,24.02
2019-04-20T09:06:22.228Z,24.25
2019-04-20T09:07:09.517Z,24.00
2019-04-20T09:08:09.311Z,23.47
2019-04-20T09:09:36.298Z,23.36
2019-04-20T09:10:25.714Z,23.55
2019-04-20T09:11:16.862Z,23.68
2019-04-20T09:12:15.813Z,23.79
2019-04-20T09:13:11.491Z,24.20
2019-04-20T09:14:02.625Z,24.35
2019-04-20T09:15:01.497Z,24.25
2019-04-20T09:15:59.947Z,24.39
2019-04-20T09:17:07.076Z,24.22
2019-04-20T09:18:05.024Z,24.40
2019-04-20T09:19:05.929Z,23.73
2019-04-20T09:20:07.128Z,24.00
2019-04-20T09:21:08.483Z,23.84
2019-04-20T09:22:12.120Z,24.00
2019-04-20T09:23:18.364Z,24.40
2019-04-20T09:24:24.354Z,24.68
2019-04-20T09:25:27.932Z,24.69
2019-04-20T09:26:25.078Z,24.28
2019-04-20T09:27:14.477Z,23.85
2019-04-20T09:28:11.588Z,23.80
2019-04-20T09:29:12.591Z,23.72
2019-04-20T09:30:16.005Z,24.10
2019-04-20T09:31:17.782Z,24.21
2019-04-20T09:32:19.428Z,23.78
2019-04-20T09:33:23.517Z,24.50
2019-04-20T09:34:16.288Z,24.76
2019-04-20T09:36:18.274Z,24.27
2019-04-20T09:37:21.470Z,23.95
2019-04-20T09:38:14.638Z,24.18
2019-04-20T09:39:11.445Z,24.64
2019-04-20T09:40:15.793Z,25.18
2019-04-20T09:41:26.406Z,25.21
2019-04-20T09:42:01.393Z,25.58
2019-04-20T09:43:00.367Z,25.64
2019-04-20T09:43:58.698Z,25.61
2019-04-20T09:45:02.822Z,25.46
2019-04-20T09:46:03.587Z,25.57
2019-04-20T09:47:01.817Z,25.65
2019-04-20T09:48:00.156Z,25.06
2019-04-20T09:49:02.747Z,25.20
2019-04-20T09:50:21.071Z,25.15
2019-04-20T09:51:20.060Z,25.43
2019-04-20T09:52:13.589Z,25.54
2019-04-20T09:53:17.411Z,25.32
2019-04-20T09:54:18.606Z,25.13
2019-04-20T09:55:14.579Z,25.18
2019-04-20T09:56:18.083Z,24.93
2019-04-20T09:57:20.499Z,25.23
2019-04-20T09:58:12.548Z,25.06
2019-04-20T09:59:24.881Z,25.09
2019-04-20T10:00:17.100Z,25.00
2019-04-20T10:01:13.323Z,25.18
2019-04-20T10:02:13.177Z,24.71
2019-04-20T10:03:00.325Z,24.87
2019-04-20T10:03:59.289Z,24.76
2019-04-20T10:04:59.737Z,24.57
2019-04-20T10:05:59.642Z,24.39
2019-04-20T10:07:00.034Z,24.22
2019-04-20T10:08:03.320Z,24.49
2019-04-20T10:09:02.853Z,24.81
2019-04-20T10:09:59.808Z,24.83
2019-04-20T10:10:59.416Z,24.22
2019-04-20T10:11:59.668Z,24.15
2019-04-20T10:13:00.549Z,24.05
2019-04-20T10:13:59.443Z,25.15
2019-04-20T10:15:04.227Z,25.67
2019-04-20T10:15:59.770Z,25.73
2019-04-20T10:17:00.038Z,26.07
2019-04-20T10:17:59.572Z,25.98
2019-04-20T10:18:58.794Z,25.92
2019-04-20T10:20:02.528Z,26.47
2019-04-20T10:20:59.888Z,26.75
2019-04-20T10:22:00.767Z,26.91
2019-04-20T10:22:58.496Z,27.18
2019-04-20T10:23:58.877Z,27.37
2019-04-20T10:24:58.307Z,27.88
2019-04-20T10:25:58.653Z,26.15
2019-04-20T10:27:00.877Z,25.27
2019-04-20T10:28:01.332Z,24.99
2019-04-20T10:28:59.393Z,25.67
2019-04-20T10:30:03.832Z,25.87
2019-04-20T10:30:58.929Z,26.30
2019-04-20T10:32:00.509Z,26.65
2019-04-20T10:32:59.691Z,26.09
2019-04-20T10:33:58.191Z,26.23
2019-04-20T10:34:58.949Z,26.02
2019-04-20T10:35:59.391Z,26.25
2019-04-20T10:36:59.579Z,26.13
2019-04-20T10:37:59.971Z,25.65
2019-04-20T10:38:58.298Z,26.07
2019-04-20T10:39:58.523Z,26.06
2019-04-20T10:41:08.209Z,26.07
2019-04-20T10:42:02.218Z,25.52
2019-04-20T10:43:01.122Z,25.13
2019-04-20T10:43:58.749Z,25.58
2019-04-20T10:45:00.314Z,25.94
2019-04-20T10:46:00.378Z,26.17
2019-04-20T10:46:58.823Z,26.12
2019-04-20T10:47:59.487Z,26.36
2019-04-20T10:49:04.055Z,26.69
2019-04-20T10:49:59.180Z,26.58
2019-04-20T10:50:58.932Z,26.52
2019-04-20T10:51:58.022Z,26.81
2019-04-20T10:52:58.022Z,27.27
2019-04-20T10:54:00.452Z,27.19
2019-04-20T10:54:58.646Z,27.12
2019-04-20T10:55:58.202Z,27.40
2019-04-20T10:56:59.346Z,27.24
2019-04-20T10:57:58.026Z,27.25
2019-04-20T10:59:05.473Z,27.65
2019-04-20T10:59:57.971Z,27.02
2019-04-20T11:00:59.773Z,26.73
2019-04-20T11:01:58.147Z,26.77
2019-04-20T11:02:57.905Z,26.06
2019-04-20T11:03:58.751Z,25.99
2019-04-20T11:04:59.615Z,26.02
2019-04-20T11:05:58.566Z,26.20
2019-04-20T11:06:58.694Z,26.39
2019-04-20T11:07:58.781Z,26.44
2019-04-20T11:08:58.539Z,26.28
2019-04-20T11:10:10.645Z,25.85
2019-04-20T11:11:09.073Z,25.97
2019-04-20T11:11:58.867Z,26.30
2019-04-20T11:12:59.043Z,26.29
2019-04-20T11:13:59.852Z,26.54
2019-04-20T11:15:00.653Z,26.10
2019-04-20T11:15:57.771Z,25.80
2019-04-20T11:16:58.398Z,26.80
2019-04-20T11:17:57.849Z,26.99
2019-04-20T11:18:57.844Z,27.36
2019-04-20T11:19:59.582Z,28.15
2019-04-20T11:20:57.791Z,28.48
2019-04-20T11:21:59.649Z,28.61
2019-04-20T11:22:58.154Z,28.76
2019-04-20T11:23:58.431Z,28.25
2019-04-20T11:24:58.565Z,27.93
2019-04-20T11:25:58.044Z,28.22
2019-04-20T11:27:00.358Z,27.63
2019-04-20T11:27:58.554Z,26.92
2019-04-20T11:28:58.002Z,26.28
2019-04-20T11:29:58.193Z,26.88
2019-04-20T11:30:58.487Z,27.75
2019-04-20T11:31:59.454Z,27.84
2019-04-20T11:32:58.101Z,27.67
2019-04-20T11:33:58.337Z,27.21
2019-04-20T11:35:01.045Z,26.28
2019-04-20T11:36:01.142Z,26.26
2019-04-20T11:36:59.149Z,26.92
2019-04-20T11:37:57.660Z,26.80
2019-04-20T11:38:58.695Z,26.94
2019-04-20T11:39:57.543Z,26.44
2019-04-20T11:41:10.019Z,26.23
2019-04-20T11:41:59.531Z,25.92
2019-04-20T11:42:57.596Z,26.18
2019-04-20T11:43:57.863Z,26.09
2019-04-20T11:44:57.541Z,26.50
2019-04-20T11:46:00.508Z,27.21
2019-04-20T11:46:59.269Z,27.79
2019-04-20T11:47:57.776Z,27.46
2019-04-20T11:48:57.477Z,27.81
2019-04-20T11:49:57.686Z,28.41
2019-04-20T11:50:57.900Z,28.17
2019-04-20T11:51:59.506Z,27.21
2019-04-20T11:52:57.430Z,27.00
2019-04-20T11:54:00.590Z,26.99
2019-04-20T11:54:58.101Z,27.51
2019-04-20T11:55:58.479Z,27.63
2019-04-20T11:56:57.485Z,27.39
2019-04-20T11:57:58.303Z,27.18
2019-04-20T11:58:58.898Z,27.29
2019-04-20T11:59:57.339Z,27.78
2019-04-20T12:01:04.236Z,28.46
2019-04-20T12:02:02.522Z,27.94
2019-04-20T12:03:00.285Z,27.39
2019-04-20T12:04:09.268Z,26.75
2019-04-20T12:05:12.816Z,26.36
2019-04-20T12:06:04.555Z,26.23
2019-04-20T12:06:59.041Z,26.92
2019-04-20T12:07:58.576Z,27.24
2019-04-20T12:08:57.316Z,28.25
2019-04-20T12:10:08.105Z,27.74
2019-04-20T12:11:01.677Z,27.70
2019-04-20T12:12:09.256Z,28.17
2019-04-20T12:12:59.510Z,26.65
2019-04-20T12:13:58.563Z,26.55
2019-04-20T12:14:58.776Z,27.27
2019-04-20T12:15:57.241Z,27.72
2019-04-20T12:16:57.556Z,27.39
2019-04-20T12:17:57.792Z,26.58
2019-04-20T12:18:57.172Z,27.13
2019-04-20T12:19:59.957Z,27.22
2019-04-20T12:20:57.129Z,26.36
2019-04-20T12:21:57.951Z,25.98
2019-04-20T12:23:00.128Z,26.80
2019-04-20T12:23:58.304Z,27.50
2019-04-20T12:24:58.208Z,27.49
2019-04-20T12:25:57.319Z,27.93
2019-04-20T12:26:59.003Z,27.81
2019-04-20T12:28:00.146Z,27.51
2019-04-20T12:28:57.981Z,27.41
2019-04-20T12:29:57.543Z,27.78
2019-04-20T12:31:07.763Z,27.87
2019-04-20T12:32:02.334Z,27.51
2019-04-20T12:33:01.841Z,27.65
2019-04-20T12:33:58.076Z,28.06
2019-04-20T12:34:58.197Z,27.90
2019-04-20T12:36:02.619Z,28.41
2019-04-20T12:36:58.549Z,28.06
2019-04-20T12:37:57.015Z,27.74
2019-04-20T12:38:59.319Z,27.75
2019-04-20T12:39:57.438Z,28.27
2019-04-20T12:41:01.374Z,28.21
2019-04-20T12:42:00.468Z,28.19
2019-04-20T12:42:59.279Z,27.92
2019-04-20T12:43:56.910Z,28.21
2019-04-20T12:44:57.771Z,28.22
2019-04-20T12:45:57.979Z,27.93
2019-04-20T12:46:57.193Z,27.21
2019-04-20T12:48:08.006Z,27.31
2019-04-20T12:48:57.693Z,27.37
2019-04-20T12:49:59.406Z,27.93
2019-04-20T12:50:57.514Z,27.87
2019-04-20T12:52:00.266Z,27.84
2019-04-20T12:52:58.816Z,27.59
2019-04-20T12:53:58.475Z,26.89
2019-04-20T12:54:59.639Z,26.40
2019-04-20T12:55:56.871Z,26.62
2019-04-20T12:56:56.808Z,27.17
2019-04-20T12:58:08.248Z,27.54
2019-04-20T12:58:57.794Z,26.52
2019-04-20T12:59:57.269Z,26.63
2019-04-20T13:00:56.771Z,26.72
2019-04-20T13:01:57.528Z,26.70
2019-04-20T13:02:59.146Z,27.27
2019-04-20T13:03:57.413Z,27.43
2019-04-20T13:04:57.463Z,27.88
2019-04-20T13:05:58.096Z,28.14
2019-04-20T13:06:57.562Z,28.95
2019-04-20T13:08:01.019Z,29.21
2019-04-20T13:08:58.875Z,29.00
2019-04-20T13:09:56.940Z,28.25
2019-04-20T13:10:58.380Z,27.46
2019-04-20T13:12:03.485Z,27.65
2019-04-20T13:13:00.857Z,27.75
2019-04-20T13:13:56.662Z,27.94
2019-04-20T13:14:56.598Z,27.50
2019-04-20T13:15:56.613Z,27.96
2019-04-20T13:16:58.672Z,28.74
2019-04-20T13:17:56.992Z,28.56
2019-04-20T13:18:59.359Z,28.44
2019-04-20T13:19:57.501Z,27.46
2019-04-20T13:20:58.777Z,27.57